Time;durP1;ratioP1;P1;durP2;ratioP2;P2;SDS_P1;SDS_P2;PMS_P1;PMS_P2;Temp;Humidity;BMP_temperature;BMP_pressure;BME280_temperature;BME280_humidity;BME280_pressure;Samples;Min_cycle;Max_cycle;Signal;HPM_P1;HPM_P2
2022/04/01 00:00:41;;;;;;;;;;;23.80;39.80;;;;;;4817676;29;19929;-64
2022/04/01 00:03:09;;;;;;;;;;;23.80;39.80;;;;;;4817712;29;19929;-64
2022/04/01 00:05:38;;;;;;;;;;;23.80;39.80;;;;;;4818253;29;20013;-64
2022/04/01 00:08:05;;;;;;;;;;;23.80;39.80;;;;;;4813250;29;19929;-64
2022/04/01 00:10:32;;;;;;;;;;;23.80;39.80;;;;;;4817919;29;19929;-64
2022/04/01 00:13:00;;;;;;;;;;;23.80;39.70;;;;;;4817680;29;20457;-63
2022/04/01 00:15:27;;;;;;;;;;;23.80;39.80;;;;;;4816957;29;19939;-63
2022/04/01 00:17:54;;;;;;;;;;;23.80;39.70;;;;;;4817360;29;19980;-63
2022/04/01 00:20:21;;;;;;;;;;;23.80;39.70;;;;;;4816796;29;19929;-64
2022/04/01 00:22:49;;;;;;;;;;;23.80;39.70;;;;;;4818408;29;20182;-67
2022/04/01 00:25:16;;;;;;;;;;;23.80;39.70;;;;;;4816895;29;19929;-63
2022/04/01 00:27:43;;;;;;;;;;;23.80;39.70;;;;;;4817053;29;19983;-63
2022/04/01 00:30:10;;;;;;;;;;;23.80;39.70;;;;;;4817479;29;19975;-63
2022/04/01 00:32:37;;;;;;;;;;;23.80;39.70;;;;;;4817410;29;20025;-64
2022/04/01 00:35:05;;;;;;;;;;;23.80;39.70;;;;;;4817775;29;19982;-64
2022/04/01 00:37:33;;;;;;;;;;;23.80;39.70;;;;;;4817059;29;19931;-63
2022/04/01 00:40:01;;;;;;;;;;;23.80;39.70;;;;;;4812516;29;20001;-63
2022/04/01 00:42:30;;;;;;;;;;;23.80;39.80;;;;;;4816958;29;20353;-63
2022/04/01 00:44:58;;;;;;;;;;;23.80;39.80;;;;;;4817085;29;19971;-64
2022/04/01 00:47:25;;;;;;;;;;;23.80;39.80;;;;;;4816202;29;19935;-63
2022/04/01 00:49:54;;;;;;;;;;;23.70;39.80;;;;;;4816593;29;20366;-67
2022/04/01 00:52:22;;;;;;;;;;;23.80;39.80;;;;;;4817578;29;19986;-64
2022/04/01 00:54:52;;;;;;;;;;;23.70;40.30;;;;;;4817358;29;19929;-64
2022/04/01 00:57:19;;;;;;;;;;;23.70;39.80;;;;;;4817198;29;19933;-63
2022/04/01 00:59:48;;;;;;;;;;;23.70;39.80;;;;;;4816692;29;20338;-64
2022/04/01 01:02:16;;;;;;;;;;;23.70;39.80;;;;;;4816934;29;19929;-64
2022/04/01 01:04:44;;;;;;;;;;;23.70;39.80;;;;;;4817373;29;19940;-64
2022/04/01 01:07:12;;;;;;;;;;;23.70;39.80;;;;;;4816918;29;20528;-64
2022/04/01 01:09:39;;;;;;;;;;;23.70;39.80;;;;;;4815424;29;19929;-64
2022/04/01 01:12:06;;;;;;;;;;;23.70;39.80;;;;;;4813716;29;19933;-63
2022/04/01 01:14:36;;;;;;;;;;;23.70;39.80;;;;;;4816771;29;19993;-64
2022/04/01 01:17:05;;;;;;;;;;;23.70;39.80;;;;;;4817076;29;19960;-64
2022/04/01 01:19:32;;;;;;;;;;;23.70;39.80;;;;;;4816040;29;20414;-63
2022/04/01 01:22:00;;;;;;;;;;;23.80;39.80;;;;;;4817029;29;20010;-64
2022/04/01 01:24:29;;;;;;;;;;;23.80;39.80;;;;;;4817091;29;19985;-64
2022/04/01 01:26:57;;;;;;;;;;;23.70;39.70;;;;;;4816559;29;20421;-63
2022/04/01 01:29:28;;;;;;;;;;;23.80;39.70;;;;;;4816723;29;19937;-64
2022/04/01 01:31:56;;;;;;;;;;;23.80;39.70;;;;;;4816556;29;20013;-64
2022/04/01 01:34:23;;;;;;;;;;;23.80;39.70;;;;;;4816994;29;19933;-63
2022/04/01 01:36:50;;;;;;;;;;;23.70;39.60;;;;;;4816979;29;20021;-64
2022/04/01 01:39:18;;;;;;;;;;;23.80;39.70;;;;;;4816444;29;20435;-63
2022/04/01 01:41:46;;;;;;;;;;;23.80;39.70;;;;;;4813957;29;19971;-63
2022/04/01 01:44:14;;;;;;;;;;;23.80;39.60;;;;;;4814335;29;19999;-63
2022/04/01 01:46:41;;;;;;;;;;;23.80;39.60;;;;;;4815357;29;20011;-63
2022/04/01 01:49:08;;;;;;;;;;;23.70;39.60;;;;;;4816241;29;19929;-64
2022/04/01 01:57:09;;;;;;;;;;;23.70;39.60;;;;;;4819647;29;19928;-63
2022/04/01 01:59:36;;;;;;;;;;;23.70;39.60;;;;;;4819446;29;19960;-63
2022/04/01 02:02:05;;;;;;;;;;;23.70;39.60;;;;;;4818419;29;20439;-63
2022/04/01 02:04:32;;;;;;;;;;;23.80;39.60;;;;;;4820255;29;20324;-64
2022/04/01 02:07:00;;;;;;;;;;;23.70;39.60;;;;;;4819554;29;20557;-63
2022/04/01 02:09:27;;;;;;;;;;;23.70;39.60;;;;;;4818565;29;20454;-63
2022/04/01 02:11:54;;;;;;;;;;;23.70;39.60;;;;;;4819825;29;19933;-63
2022/04/01 02:14:21;;;;;;;;;;;23.70;39.60;;;;;;4815346;29;19937;-64
2022/04/01 02:16:48;;;;;;;;;;;23.70;39.60;;;;;;4819102;29;20286;-63
2022/04/01 02:19:21;;;;;;;;;;;23.70;39.60;;;;;;4819557;29;19985;-64
2022/04/01 02:21:49;;;;;;;;;;;23.70;39.60;;;;;;4783877;29;20120;-63
2022/04/01 02:24:17;;;;;;;;;;;23.70;39.60;;;;;;4783579;29;19929;-64
2022/04/01 02:26:47;;;;;;;;;;;23.60;39.50;;;;;;4782912;29;19933;-63
2022/04/01 02:29:15;;;;;;;;;;;23.70;39.60;;;;;;4783496;29;19940;-63
2022/04/01 02:31:42;;;;;;;;;;;23.70;39.60;;;;;;4783076;29;20417;-64
2022/04/01 02:34:09;;;;;;;;;;;23.70;39.60;;;;;;4783039;29;19995;-68
2022/04/01 02:36:38;;;;;;;;;;;23.60;39.60;;;;;;4783129;29;19998;-65
2022/04/01 02:39:05;;;;;;;;;;;23.60;39.60;;;;;;4783812;29;19968;-65
2022/04/01 02:41:32;;;;;;;;;;;23.60;39.60;;;;;;4783587;29;20002;-65
2022/04/01 02:44:09;;;;;;;;;;;23.60;39.70;;;;;;4782859;29;20414;-64
2022/04/01 02:46:43;;;;;;;;;;;23.60;39.60;;;;;;4778327;29;19985;-65
2022/04/01 02:49:12;;;;;;;;;;;23.60;39.70;;;;;;4782727;29;19965;-65
2022/04/01 02:51:40;;;;;;;;;;;23.60;39.70;;;;;;4782544;29;19937;-65
2022/04/01 02:54:07;;;;;;;;;;;23.60;39.70;;;;;;4783224;29;19930;-65
2022/04/01 02:56:35;;;;;;;;;;;23.60;39.70;;;;;;4782522;29;19990;-65
2022/04/01 02:59:03;;;;;;;;;;;23.60;39.70;;;;;;4783075;29;19929;-65
2022/04/01 03:01:30;;;;;;;;;;;23.60;39.70;;;;;;4782328;29;20349;-65
2022/04/01 03:03:58;;;;;;;;;;;23.60;39.70;;;;;;4783045;29;20206;-65
2022/04/01 03:06:25;;;;;;;;;;;23.60;39.70;;;;;;4782533;29;20303;-65
2022/04/01 03:08:52;;;;;;;;;;;23.60;39.60;;;;;;4782647;29;20454;-64
2022/04/01 03:11:20;;;;;;;;;;;23.60;39.60;;;;;;4782638;29;19929;-65
2022/04/01 03:13:47;;;;;;;;;;;23.60;39.60;;;;;;4781250;30;19929;-64
2022/04/01 03:16:14;;;;;;;;;;;23.60;39.60;;;;;;4781378;30;20577;-64
2022/04/01 03:18:41;;;;;;;;;;;23.60;39.60;;;;;;4778337;29;19968;-65
2022/04/01 03:21:11;;;;;;;;;;;23.60;39.50;;;;;;4782965;29;19930;-64
2022/04/01 03:23:39;;;;;;;;;;;23.60;39.50;;;;;;4782345;29;19930;-65
2022/04/01 03:26:06;;;;;;;;;;;23.60;39.50;;;;;;4782675;29;19930;-64
2022/04/01 03:28:37;;;;;;;;;;;23.60;39.50;;;;;;4782321;29;19941;-65
2022/04/01 03:31:04;;;;;;;;;;;23.60;39.50;;;;;;4782380;29;20397;-64
2022/04/01 03:33:32;;;;;;;;;;;23.60;39.50;;;;;;4782282;29;19930;-65
2022/04/01 03:36:00;;;;;;;;;;;23.60;39.50;;;;;;4782435;29;20393;-65
2022/04/01 03:38:27;;;;;;;;;;;23.60;39.50;;;;;;4783514;29;19986;-65
2022/04/01 03:40:55;;;;;;;;;;;23.60;39.50;;;;;;4789729;29;20036;-64
2022/04/01 03:43:23;;;;;;;;;;;23.60;39.50;;;;;;4789587;29;19930;-65
2022/04/01 03:45:54;;;;;;;;;;;23.60;39.50;;;;;;4788016;29;19937;-65
2022/04/01 03:48:24;;;;;;;;;;;23.60;39.50;;;;;;4777176;29;19930;-65
2022/04/01 03:50:52;;;;;;;;;;;23.60;39.50;;;;;;4790534;29;19929;-65
2022/04/01 03:53:23;;;;;;;;;;;23.60;39.50;;;;;;4791502;29;20474;-65
2022/04/01 03:55:50;;;;;;;;;;;23.60;39.50;;;;;;4790393;29;19929;-65
2022/04/01 03:58:18;;;;;;;;;;;23.60;39.50;;;;;;4793879;29;19929;-65
2022/04/01 04:00:45;;;;;;;;;;;23.60;39.50;;;;;;4799756;29;20398;-65
2022/04/01 04:03:13;;;;;;;;;;;23.60;39.50;;;;;;4799508;29;19984;-65
2022/04/01 04:05:43;;;;;;;;;;;23.60;39.50;;;;;;4799584;29;20029;-65
2022/04/01 04:08:11;;;;;;;;;;;23.60;39.50;;;;;;4799592;29;19983;-64
2022/04/01 04:10:39;;;;;;;;;;;23.60;39.50;;;;;;4798950;29;20023;-65
2022/04/01 04:13:07;;;;;;;;;;;23.60;39.50;;;;;;4799296;29;19929;-64
2022/04/01 04:15:40;;;;;;;;;;;23.60;39.50;;;;;;4799139;29;19978;-65
2022/04/01 04:18:09;;;;;;;;;;;23.50;39.50;;;;;;4798821;29;20401;-65
2022/04/01 04:20:40;;;;;;;;;;;23.50;39.50;;;;;;4789428;29;19935;-64
2022/04/01 04:23:10;;;;;;;;;;;23.50;39.50;;;;;;4789442;29;20339;-65
2022/04/01 04:25:38;;;;;;;;;;;23.50;39.50;;;;;;4797534;29;19929;-65
2022/04/01 04:28:10;;;;;;;;;;;23.50;39.50;;;;;;4798665;29;19937;-65
2022/04/01 04:30:38;;;;;;;;;;;23.50;39.60;;;;;;4796739;29;19929;-65
2022/04/01 04:33:07;;;;;;;;;;;23.50;39.60;;;;;;4797919;29;19992;-64
2022/04/01 04:35:37;;;;;;;;;;;23.50;39.60;;;;;;4809068;29;19944;-65
2022/04/01 04:38:04;;;;;;;;;;;23.50;39.60;;;;;;4798584;29;19998;-65
2022/04/01 04:40:32;;;;;;;;;;;23.50;39.60;;;;;;4796002;29;19988;-65
2022/04/01 04:42:59;;;;;;;;;;;23.50;39.60;;;;;;4797935;29;19980;-65
2022/04/01 04:45:27;;;;;;;;;;;23.50;39.60;;;;;;4803082;29;20382;-65
2022/04/01 04:47:55;;;;;;;;;;;23.50;39.60;;;;;;4806609;29;20140;-65
2022/04/01 04:50:22;;;;;;;;;;;23.50;39.50;;;;;;4810220;29;19986;-65
2022/04/01 04:52:50;;;;;;;;;;;23.50;39.40;;;;;;4799021;29;20390;-65
2022/04/01 04:55:17;;;;;;;;;;;23.60;39.50;;;;;;4816816;29;19936;-65
2022/04/01 04:57:45;;;;;;;;;;;23.60;39.40;;;;;;4817048;29;19933;-64
2022/04/01 05:00:19;;;;;;;;;;;23.60;39.40;;;;;;4816969;29;19972;-64
2022/04/01 05:02:51;;;;;;;;;;;23.60;39.40;;;;;;4812301;29;20422;-65
2022/04/01 05:05:26;;;;;;;;;;;23.60;39.30;;;;;;4798216;29;19976;-64
2022/04/01 05:08:08;;;;;;;;;;;23.60;39.30;;;;;;4798515;29;19989;-65
2022/04/01 05:10:42;;;;;;;;;;;23.60;39.20;;;;;;4795945;29;19929;-64
2022/04/01 05:13:13;;;;;;;;;;;23.50;39.20;;;;;;4798025;29;19929;-64
2022/04/01 05:15:41;;;;;;;;;;;23.50;39.30;;;;;;4792979;29;19929;-64
2022/04/01 05:18:12;;;;;;;;;;;23.50;39.30;;;;;;4797256;29;20275;-64
2022/04/01 05:20:46;;;;;;;;;;;23.50;39.20;;;;;;4800580;29;19929;-64
2022/04/01 05:23:26;;;;;;;;;;;23.50;39.20;;;;;;4793223;29;19940;-63
2022/04/01 05:25:55;;;;;;;;;;;23.50;39.10;;;;;;4793038;29;19945;-62
2022/04/01 05:28:25;;;;;;;;;;;23.60;39.10;;;;;;4792900;29;19948;-62
2022/04/01 05:31:08;;;;;;;;;;;23.60;39.10;;;;;;4796719;29;19934;-65
2022/04/01 05:33:41;;;;;;;;;;;23.60;39.10;;;;;;4798228;29;19937;-65
2022/04/01 05:36:10;;;;;;;;;;;23.60;39.10;;;;;;4797557;29;20001;-64
2022/04/01 05:38:37;;;;;;;;;;;23.70;39.10;;;;;;4794082;29;20694;-63
2022/04/01 05:41:07;;;;;;;;;;;23.70;39.00;;;;;;4798400;29;19940;-64
2022/04/01 05:43:35;;;;;;;;;;;23.80;39.00;;;;;;4795505;29;19932;-65
2022/04/01 05:46:03;;;;;;;;;;;23.80;38.90;;;;;;4808183;29;19986;-65
2022/04/01 05:48:32;;;;;;;;;;;23.90;38.90;;;;;;4796082;29;19941;-64
2022/04/01 05:51:01;;;;;;;;;;;23.90;38.80;;;;;;4795400;29;20395;-65
2022/04/01 05:53:32;;;;;;;;;;;23.90;38.70;;;;;;4791135;29;19937;-65
2022/04/01 05:56:00;;;;;;;;;;;23.90;38.60;;;;;;4793275;29;20003;-64
2022/04/01 05:58:29;;;;;;;;;;;24.00;38.60;;;;;;4795417;29;19936;-63
2022/04/01 06:01:02;;;;;;;;;;;24.00;38.50;;;;;;4793936;29;20334;-65
2022/04/01 06:03:43;;;;;;;;;;;24.10;38.60;;;;;;4797479;29;19986;-65
2022/04/01 06:06:13;;;;;;;;;;;24.10;38.40;;;;;;4794355;29;19948;-66
2022/04/01 06:08:55;;;;;;;;;;;24.10;38.30;;;;;;4792671;29;19929;-64
2022/04/01 06:11:43;;;;;;;;;;;24.20;38.50;;;;;;4811261;29;19935;-64
2022/04/01 06:14:16;;;;;;;;;;;24.20;38.80;;;;;;4796807;29;20371;-64
2022/04/01 06:16:44;;;;;;;;;;;24.30;39.00;;;;;;4796992;29;19937;-65
2022/04/01 06:19:26;;;;;;;;;;;24.30;39.10;;;;;;4791399;29;19937;-65
2022/04/01 06:22:05;;;;;;;;;;;24.30;39.10;;;;;;4792618;29;20067;-65
2022/04/01 06:24:38;;;;;;;;;;;24.30;39.10;;;;;;4796864;29;19968;-64
2022/04/01 06:27:08;;;;;;;;;;;24.30;39.10;;;;;;4790314;29;19937;-63
2022/04/01 06:29:39;;;;;;;;;;;24.30;39.10;;;;;;4796719;29;19976;-64
2022/04/01 06:32:12;;;;;;;;;;;24.30;39.10;;;;;;4797097;29;19960;-63
2022/04/01 06:34:59;;;;;;;;;;;24.40;39.10;;;;;;4778725;29;19938;-62
2022/04/01 06:37:27;;;;;;;;;;;24.40;39.10;;;;;;4789894;29;20079;-63
2022/04/01 06:40:03;;;;;;;;;;;24.40;39.10;;;;;;4791374;29;20037;-63
2022/04/01 06:42:31;;;;;;;;;;;24.50;39.00;;;;;;4792766;29;19990;-63
2022/04/01 06:44:59;;;;;;;;;;;24.50;39.00;;;;;;4792056;29;19937;-64
2022/04/01 06:47:26;;;;;;;;;;;24.50;38.90;;;;;;4793109;29;19977;-62
2022/04/01 06:49:52;;;;;;;;;;;24.50;38.90;;;;;;4792001;29;19988;-64
2022/04/01 06:52:20;;;;;;;;;;;24.60;38.80;;;;;;4793909;29;20445;-64
2022/04/01 06:54:47;;;;;;;;;;;24.60;38.80;;;;;;4794734;29;19941;-63
2022/04/01 06:57:14;;;;;;;;;;;24.60;38.80;;;;;;4792590;29;19990;-64
2022/04/01 06:59:42;;;;;;;;;;;24.60;38.70;;;;;;4794173;29;19937;-64
2022/04/01 07:02:09;;;;;;;;;;;24.60;38.60;;;;;;4792416;29;20336;-64
2022/04/01 07:04:36;;;;;;;;;;;24.60;38.50;;;;;;4794437;29;19929;-63
2022/04/01 07:07:04;;;;;;;;;;;24.60;38.40;;;;;;4791604;29;19970;-64
2022/04/01 07:09:33;;;;;;;;;;;24.60;38.40;;;;;;4794299;29;20336;-66
2022/04/01 07:12:01;;;;;;;;;;;24.60;38.40;;;;;;4794770;29;19966;-64
2022/04/01 07:14:28;;;;;;;;;;;24.60;38.20;;;;;;4789949;29;19981;-66
2022/04/01 07:16:55;;;;;;;;;;;24.60;38.30;;;;;;4792935;29;19978;-65
2022/04/01 07:19:23;;;;;;;;;;;24.60;38.30;;;;;;4794776;29;19938;-66
2022/04/01 07:21:50;;;;;;;;;;;24.70;38.40;;;;;;4794941;29;20395;-65
2022/04/01 07:24:17;;;;;;;;;;;24.70;38.40;;;;;;4788726;29;19973;-63
2022/04/01 07:26:44;;;;;;;;;;;24.70;38.40;;;;;;4792693;29;19930;-65
2022/04/01 07:29:12;;;;;;;;;;;24.70;38.50;;;;;;4788033;29;19933;-64
2022/04/01 07:34:38;;;;;;;;;;;24.80;38.50;;;;;;4792979;29;20201;-64
2022/04/01 07:37:05;;;;;;;;;;;24.80;38.40;;;;;;4786088;29;19937;-65
2022/04/01 07:39:32;;;;;;;;;;;24.80;38.30;;;;;;4792809;29;19937;-65
2022/04/01 07:42:00;;;;;;;;;;;24.80;38.30;;;;;;4794015;29;19936;-64
2022/04/01 07:44:27;;;;;;;;;;;24.80;38.30;;;;;;4794131;29;19930;-62
2022/04/01 07:46:54;;;;;;;;;;;24.80;38.30;;;;;;4790521;29;19990;-62
2022/04/01 07:49:21;;;;;;;;;;;24.80;38.60;;;;;;4791003;29;19933;-63
2022/04/01 07:52:10;;;;;;;;;;;24.80;38.70;;;;;;4790994;29;20064;-63
2022/04/01 07:54:46;;;;;;;;;;;24.80;39.20;;;;;;4789626;29;19941;-63
2022/04/01 07:57:13;;;;;;;;;;;24.90;38.70;;;;;;4794456;29;19937;-67
2022/04/01 07:59:40;;;;;;;;;;;24.90;38.70;;;;;;4791211;29;19986;-65
2022/04/01 08:02:08;;;;;;;;;;;24.90;38.60;;;;;;4790423;29;19937;-62
2022/04/01 08:04:35;;;;;;;;;;;24.90;38.50;;;;;;4789944;29;20052;-63
2022/04/01 08:07:07;;;;;;;;;;;24.90;38.40;;;;;;4791794;29;20053;-64
2022/04/01 08:09:35;;;;;;;;;;;25.00;38.40;;;;;;4792911;29;19937;-65
2022/04/01 08:12:10;;;;;;;;;;;25.00;38.30;;;;;;5082392;27;19916;-66
2022/04/01 08:14:39;;;;;;;;;;;25.00;38.00;;;;;;5058382;28;22488;-64
2022/04/01 08:17:06;;;;;;;;;;;25.00;37.80;;;;;;5056624;28;20035;-66
2022/04/01 08:19:34;;;;;;;;;;;25.00;37.70;;;;;;5061040;28;19963;-65
2022/04/01 08:22:01;;;;;;;;;;;25.00;37.60;;;;;;5054735;28;19959;-65
2022/04/01 08:24:28;;;;;;;;;;;25.10;37.70;;;;;;5055623;28;19936;-66
2022/04/01 08:26:57;;;;;;;;;;;25.00;37.70;;;;;;5057205;28;19933;-67
2022/04/01 08:29:26;;;;;;;;;;;25.00;37.70;;;;;;5058591;28;19998;-63
2022/04/01 08:31:54;;;;;;;;;;;25.00;37.90;;;;;;5051613;28;19986;-63
2022/04/01 08:34:21;;;;;;;;;;;25.00;37.80;;;;;;5054742;28;20078;-69
2022/04/01 08:36:49;;;;;;;;;;;25.00;37.80;;;;;;5057165;28;19960;-71
2022/04/01 08:39:16;;;;;;;;;;;25.00;37.80;;;;;;5061742;28;20062;-70
2022/04/01 08:41:43;;;;;;;;;;;25.00;37.90;;;;;;5058405;28;19934;-69
2022/04/01 08:44:11;;;;;;;;;;;25.10;38.50;;;;;;5057776;28;19925;-68
2022/04/01 08:46:39;;;;;;;;;;;25.10;37.90;;;;;;5072625;28;19933;-72
2022/04/01 08:49:06;;;;;;;;;;;25.10;37.80;;;;;;5055261;28;19986;-69
2022/04/01 08:51:33;;;;;;;;;;;25.10;37.70;;;;;;5056018;28;20030;-67
2022/04/01 08:54:02;;;;;;;;;;;25.10;37.60;;;;;;5058385;28;19948;-67
2022/04/01 08:56:29;;;;;;;;;;;25.10;37.60;;;;;;5055552;28;19932;-67
2022/04/01 08:58:56;;;;;;;;;;;25.20;37.60;;;;;;5055547;28;20680;-64
2022/04/01 09:01:24;;;;;;;;;;;25.20;37.60;;;;;;5055043;28;19929;-67
2022/04/01 09:03:52;;;;;;;;;;;25.20;37.50;;;;;;5049653;28;19933;-69
2022/04/01 09:06:20;;;;;;;;;;;25.20;37.40;;;;;;5051707;28;19933;-68
2022/04/01 09:08:48;;;;;;;;;;;25.20;37.30;;;;;;5052379;28;19948;-67
2022/04/01 09:11:18;;;;;;;;;;;25.20;37.20;;;;;;5065983;28;19960;-64
2022/04/01 09:13:50;;;;;;;;;;;25.20;37.20;;;;;;5076625;28;19943;-65
2022/04/01 09:16:32;;;;;;;;;;;25.30;37.30;;;;;;5077824;28;19924;-66
2022/04/01 09:19:02;;;;;;;;;;;25.30;37.30;;;;;;5075529;28;19931;-64
2022/04/01 09:21:31;;;;;;;;;;;25.30;37.20;;;;;;5078461;28;19928;-64
2022/04/01 09:24:00;;;;;;;;;;;25.30;37.10;;;;;;5059355;28;19932;-66
2022/04/01 09:26:31;;;;;;;;;;;25.40;37.20;;;;;;5062168;28;19936;-73
2022/04/01 09:29:00;;;;;;;;;;;25.30;37.10;;;;;;5065488;28;19928;-67
2022/04/01 09:31:36;;;;;;;;;;;25.40;37.20;;;;;;5066356;28;19929;-66
2022/04/01 09:34:09;;;;;;;;;;;25.40;37.10;;;;;;5063384;28;20285;-67
2022/04/01 09:36:38;;;;;;;;;;;25.40;37.00;;;;;;5061560;28;19939;-63
2022/04/01 09:39:08;;;;;;;;;;;25.40;37.00;;;;;;5057494;28;19961;-64
2022/04/01 09:41:41;;;;;;;;;;;25.40;36.90;;;;;;5062126;28;19972;-63
2022/04/01 09:44:26;;;;;;;;;;;25.40;36.80;;;;;;5066845;28;19947;-62
2022/04/01 09:46:56;;;;;;;;;;;25.50;36.80;;;;;;5050037;28;19967;-64
2022/04/01 09:49:39;;;;;;;;;;;25.50;36.70;;;;;;5063273;28;19936;-66
2022/04/01 09:52:11;;;;;;;;;;;25.60;36.90;;;;;;5062374;28;19983;-64
2022/04/01 09:54:45;;;;;;;;;;;25.60;36.70;;;;;;5058258;28;19932;-63
2022/04/01 09:57:13;;;;;;;;;;;25.70;36.60;;;;;;5061507;28;19924;-64
2022/04/01 09:59:41;;;;;;;;;;;25.70;36.50;;;;;;5063732;28;19987;-64
2022/04/01 10:02:08;;;;;;;;;;;25.70;36.40;;;;;;5064124;28;20363;-63
2022/04/01 10:04:35;;;;;;;;;;;25.80;36.30;;;;;;5065216;28;19933;-64
2022/04/01 10:07:03;;;;;;;;;;;25.80;36.30;;;;;;5064739;28;20296;-63
2022/04/01 10:09:31;;;;;;;;;;;25.80;36.20;;;;;;5061042;28;19932;-63
2022/04/01 10:12:18;;;;;;;;;;;25.80;36.00;;;;;;5060410;28;20023;-63
2022/04/01 10:14:45;;;;;;;;;;;25.80;35.80;;;;;;5058159;28;20360;-63
2022/04/01 10:17:26;;;;;;;;;;;25.80;35.80;;;;;;5057868;28;19924;-66
2022/04/01 10:19:55;;;;;;;;;;;25.80;35.80;;;;;;5056855;28;19933;-62
2022/04/01 10:22:23;;;;;;;;;;;25.80;35.80;;;;;;5066547;28;19925;-63
2022/04/01 10:25:00;;;;;;;;;;;25.80;35.80;;;;;;5063037;28;20296;-62
2022/04/01 10:27:37;;;;;;;;;;;25.80;35.80;;;;;;5058843;28;19932;-64
2022/04/01 10:30:05;;;;;;;;;;;25.80;35.80;;;;;;5046383;28;19956;-63
2022/04/01 10:32:38;;;;;;;;;;;25.80;35.80;;;;;;5054735;28;20403;-65
2022/04/01 10:35:07;;;;;;;;;;;25.80;35.80;;;;;;5059597;28;19924;-62
2022/04/01 10:37:34;;;;;;;;;;;25.80;35.80;;;;;;5055168;28;19929;-66
2022/04/01 10:40:06;;;;;;;;;;;25.70;35.80;;;;;;5057490;28;20795;-72
2022/04/01 10:42:38;;;;;;;;;;;25.70;32.70;;;;;;5061805;28;19931;-65
2022/04/01 10:45:08;;;;;;;;;;;25.40;33.00;;;;;;5051815;28;19932;-68
2022/04/01 10:53:32;;;;;;;;;;;24.90;35.30;;;;;;5059843;28;20342;-70
2022/04/01 10:56:19;;;;;;;;;;;24.90;35.60;;;;;;5059599;28;20011;-70
2022/04/01 10:59:06;;;;;;;;;;;24.90;35.70;;;;;;5064187;28;20011;-70
2022/04/01 11:01:56;;;;;;;;;;;24.90;35.70;;;;;;5061898;28;19936;-71
2022/04/01 11:04:25;;;;;;;;;;;25.00;35.90;;;;;;5059044;28;20349;-69
2022/04/01 11:07:01;;;;;;;;;;;25.10;36.00;;;;;;5047324;28;19928;-66
2022/04/01 11:09:32;;;;;;;;;;;25.10;36.00;;;;;;5059057;28;19939;-66
2022/04/01 11:12:23;;;;;;;;;;;25.20;36.30;;;;;;5055632;28;19933;-72
2022/04/01 11:15:20;;;;;;;;;;;25.20;36.40;;;;;;5053233;28;20352;-71
2022/04/01 11:17:59;;;;;;;;;;;25.30;36.60;;;;;;5060440;28;20388;-71
2022/04/01 11:20:27;;;;;;;;;;;25.40;36.80;;;;;;5061675;28;19924;-68
2022/04/01 11:23:03;;;;;;;;;;;25.40;36.70;;;;;;5063921;28;20778;-71
2022/04/01 11:25:52;;;;;;;;;;;25.40;36.60;;;;;;5061520;28;19932;-69
2022/04/01 11:28:20;;;;;;;;;;;25.50;36.70;;;;;;5064550;28;19933;-71
2022/04/01 11:31:07;;;;;;;;;;;25.50;36.50;;;;;;5061465;28;19958;-71
2022/04/01 11:33:35;;;;;;;;;;;25.60;36.40;;;;;;5046626;28;19932;-68
2022/04/01 11:36:03;;;;;;;;;;;25.60;36.30;;;;;;5057300;28;19933;-68
2022/04/01 11:38:30;;;;;;;;;;;25.70;36.30;;;;;;5058320;28;19933;-74
2022/04/01 11:41:00;;;;;;;;;;;25.70;36.10;;;;;;5060481;28;19928;-71
2022/04/01 11:43:28;;;;;;;;;;;25.80;36.10;;;;;;5056115;28;19994;-73
2022/04/01 11:45:57;;;;;;;;;;;25.80;36.10;;;;;;5066117;28;19924;-72
2022/04/01 11:48:29;;;;;;;;;;;25.90;36.10;;;;;;5070367;28;19994;-72
2022/04/01 11:50:58;;;;;;;;;;;25.90;36.00;;;;;;5063484;28;20408;-72
2022/04/01 11:53:26;;;;;;;;;;;26.00;36.10;;;;;;5062394;28;19995;-72
2022/04/01 11:55:53;;;;;;;;;;;26.00;36.10;;;;;;5064521;28;20019;-70
2022/04/01 11:58:21;;;;;;;;;;;26.00;35.90;;;;;;5047575;28;19932;-77
2022/04/01 12:00:48;;;;;;;;;;;26.00;35.90;;;;;;5066872;28;20160;-73
2022/04/01 12:03:18;;;;;;;;;;;26.00;35.90;;;;;;5065043;28;19936;-73
2022/04/01 12:05:50;;;;;;;;;;;25.90;35.80;;;;;;5067918;28;20407;-74
2022/04/01 12:11:06;;;;;;;;;;;25.90;35.70;;;;;;5060711;28;19924;-74
2022/04/01 12:13:33;;;;;;;;;;;25.90;35.70;;;;;;5049166;28;19978;-74
2022/04/01 12:19:22;;;;;;;;;;;25.90;35.50;;;;;;5053775;28;19924;-73
2022/04/01 12:21:50;;;;;;;;;;;25.80;35.30;;;;;;5053435;28;19970;-74
2022/04/01 12:24:18;;;;;;;;;;;25.80;35.20;;;;;;5052834;28;19929;-75
2022/04/01 12:26:48;;;;;;;;;;;25.80;35.10;;;;;;5055108;28;19928;-76
2022/04/01 12:29:23;;;;;;;;;;;25.80;35.00;;;;;;5066240;28;19942;-73
2022/04/01 12:31:54;;;;;;;;;;;25.80;34.90;;;;;;5059339;28;20120;-74
2022/04/01 12:34:23;;;;;;;;;;;25.80;34.90;;;;;;5048512;28;19974;-76
2022/04/01 12:36:51;;;;;;;;;;;25.90;34.90;;;;;;5066551;28;20400;-76
2022/04/01 12:39:18;;;;;;;;;;;25.80;34.80;;;;;;5054018;28;19925;-76
2022/04/01 12:41:50;;;;;;;;;;;25.90;34.80;;;;;;5059686;28;19928;-76
2022/04/01 12:44:17;;;;;;;;;;;25.90;34.80;;;;;;5058952;28;20400;-77
2022/04/01 12:46:48;;;;;;;;;;;25.90;34.80;;;;;;5054852;28;19990;-77
2022/04/01 12:49:19;;;;;;;;;;;25.90;34.80;;;;;;5060449;28;20014;-76
2022/04/01 12:51:54;;;;;;;;;;;25.90;34.80;;;;;;5062004;28;19939;-74
2022/04/01 12:54:27;;;;;;;;;;;25.90;34.70;;;;;;5057715;28;19924;-75
2022/04/01 12:56:55;;;;;;;;;;;25.90;34.80;;;;;;5058697;28;20382;-62
2022/04/01 12:59:22;;;;;;;;;;;25.80;34.90;;;;;;5064838;28;19978;-63
2022/04/01 13:01:57;;;;;;;;;;;25.80;35.70;;;;;;5066138;28;19926;-62
2022/04/01 13:04:25;;;;;;;;;;;25.80;35.20;;;;;;5047797;28;20325;-62
2022/04/01 13:07:09;;;;;;;;;;;25.80;35.30;;;;;;5065982;28;19950;-65
2022/04/01 13:09:48;;;;;;;;;;;25.80;35.40;;;;;;5048203;28;19978;-62
2022/04/01 13:12:16;;;;;;;;;;;25.80;35.50;;;;;;5046033;28;19932;-62
2022/04/01 13:14:43;;;;;;;;;;;25.80;36.00;;;;;;5058959;28;19925;-62
2022/04/01 13:17:15;;;;;;;;;;;25.80;36.00;;;;;;5048807;28;19924;-63
2022/04/01 13:19:44;;;;;;;;;;;25.80;36.00;;;;;;5068755;28;20094;-62
2022/04/01 13:22:11;;;;;;;;;;;25.80;35.90;;;;;;5061949;28;19980;-62
2022/04/01 13:24:42;;;;;;;;;;;25.80;35.80;;;;;;5056527;28;19932;-63
2022/04/01 13:27:11;;;;;;;;;;;25.80;35.80;;;;;;5067873;28;20016;-62
2022/04/01 13:29:39;;;;;;;;;;;25.80;35.70;;;;;;5068329;28;19928;-63
2022/04/01 13:32:06;;;;;;;;;;;25.80;35.60;;;;;;5067441;28;19964;-63
2022/04/01 13:34:34;;;;;;;;;;;25.80;35.50;;;;;;5068472;28;19925;-63
2022/04/01 13:37:01;;;;;;;;;;;25.80;35.50;;;;;;5068272;28;20407;-63
2022/04/01 13:39:28;;;;;;;;;;;25.80;35.30;;;;;;5067863;28;19924;-63
2022/04/01 13:41:57;;;;;;;;;;;25.90;35.40;;;;;;5067634;28;19928;-62
2022/04/01 13:44:25;;;;;;;;;;;25.90;35.30;;;;;;5069138;28;19971;-62
2022/04/01 13:46:52;;;;;;;;;;;25.80;35.20;;;;;;5069180;28;19956;-62
2022/04/01 13:49:19;;;;;;;;;;;25.80;35.20;;;;;;5062555;28;19968;-62
2022/04/01 13:51:47;;;;;;;;;;;25.80;35.10;;;;;;5066884;28;20261;-62
2022/04/01 13:54:14;;;;;;;;;;;25.80;35.10;;;;;;5067012;28;19924;-62
2022/04/01 13:56:41;;;;;;;;;;;25.80;35.00;;;;;;5067098;28;19981;-63
2022/04/01 13:59:08;;;;;;;;;;;25.80;35.00;;;;;;5067546;28;19978;-63
2022/04/01 14:01:36;;;;;;;;;;;25.80;35.00;;;;;;5067906;28;19924;-63
2022/04/01 14:04:04;;;;;;;;;;;25.80;35.00;;;;;;5066877;28;20019;-63
2022/04/01 14:06:31;;;;;;;;;;;25.80;35.00;;;;;;5067314;28;20317;-62
2022/04/01 14:08:58;;;;;;;;;;;25.80;35.00;;;;;;5067262;28;19975;-64
2022/04/01 14:11:26;;;;;;;;;;;25.80;35.00;;;;;;5067025;28;20282;-63
2022/04/01 14:13:53;;;;;;;;;;;25.80;35.00;;;;;;5067262;28;19933;-63
2022/04/01 14:16:21;;;;;;;;;;;25.80;35.00;;;;;;5066099;28;19925;-63
2022/04/01 14:18:49;;;;;;;;;;;25.80;34.90;;;;;;5067923;28;19978;-64
2022/04/01 14:21:16;;;;;;;;;;;25.80;34.80;;;;;;5062178;28;19924;-63
2022/04/01 14:23:43;;;;;;;;;;;25.80;34.70;;;;;;5067461;28;19980;-63
2022/04/01 14:26:11;;;;;;;;;;;25.80;34.70;;;;;;5066912;28;19924;-63
2022/04/01 14:28:38;;;;;;;;;;;25.80;34.60;;;;;;5066721;28;20385;-63
2022/04/01 14:31:06;;;;;;;;;;;25.70;34.40;;;;;;5049566;28;19977;-63
2022/04/01 14:33:34;;;;;;;;;;;25.70;34.40;;;;;;5066736;28;19971;-63
2022/04/01 14:36:01;;;;;;;;;;;25.70;34.40;;;;;;5067021;28;19924;-63
2022/04/01 14:38:28;;;;;;;;;;;25.80;34.50;;;;;;5066744;28;20347;-63
2022/04/01 14:41:09;;;;;;;;;;;25.70;34.30;;;;;;5066828;28;19925;-63
2022/04/01 14:43:36;;;;;;;;;;;25.70;34.20;;;;;;5066772;28;19925;-63
2022/04/01 14:46:03;;;;;;;;;;;25.70;34.20;;;;;;5066195;28;20016;-63
2022/04/01 14:48:30;;;;;;;;;;;25.70;34.20;;;;;;5066683;28;20134;-63
2022/04/01 14:50:57;;;;;;;;;;;25.70;34.20;;;;;;5066404;28;19925;-63